Terminal Aerodrome Forecast
Issued by NWS Boise, ID

Home | Current Version | Previous Version | Text Only | Print | Product List | Glossary On
Versions: 1 2 3 4 5 6 7 8 9 10 11 12 13 14 15 16 17 18 19 20 21 22 23 24 25 26 27 28 29 30 31 32
000
FTUS45 KBOI 291720
TAFBOI
TAF
KBOI 291720Z 2918/3018 13011KT P6SM VCSH OVC060
     FM292200 13008KT P6SM -SHRA OVC040
     FM300200 13006KT P6SM -SHRA OVC019
     FM301300 29012G18KT P6SM -RA OVC015
     FM301500 30020G30KT 3SM -RA OVC007=

USA.gov is the U.S. government's official web portal to all federal, state and local government web resources and services.